Duncanville, TX (75116)

12:18 PM CDT on September 29, 2016 (GMT -0500)
Irwin Keasler Red Bird North | | Change Station

Elev 732 ft 32.67 °N, 96.92 °W | Updated 5 seconds ago

Clear
Clear
72.1 °F
Feels Like 77 °F
N
5.4
Wind Variable Wind from NW
Gusts 5.4 mph

Today
High -- | Low -- °F
--% Chance of Precip.
Yesterday
High -- | Low -- °F
Precip. -- in
Pressure 30.27 in
Visibility 10.0 miles
Clouds Clear
Heat Index 77 °F
Dew Point 54 °F
Humidity 52%
Rainfall 0.00 in
Snow Depth Not available.
7:20 AM 7:14 PM
Waning Crescent, 2% visible
METAR KRBD 291653Z 04008KT 10SM CLR 22/11 A3029 RMK AO2 SLP251 T02220106
Pressure 30.27 in
Visibility 10.0 miles
Clouds Clear
Heat Index 77 °F
Dew Point 54 °F
Humidity 52%
Rainfall 0.00 in
Snow Depth Not available.
7:20 AM 7:14 PM
Waning Crescent, 2% visible
METAR KRBD 291653Z 04008KT 10SM CLR 22/11 A3029 RMK AO2 SLP251 T02220106

10-Day Weather Forecast

Almanac

Astronomy

Sep. 29, 2016 Rise Set
Actual Time
Civil Twilight
Nautical Twilight
Astronomical Twilight
Moon
Length of Visible Light
Length of Day
Tomorrow will be .
, % of the Moon is Illuminated

Today's Extremes

State Highs State Lows

Community

WunderPhotos

Upload Photos

1,942,522 photos uploaded!

WunderBlog® & News

Nearby

Air Quality

  Air Quality AQ Index Pollutant
Not available.

Snow Depth

Station Depth Elevation

Earthquake Activity

City Distance Mag. Time & Date
Minimum magnitude displayed is 2.5.

Coastal Water Temperatures

Place Temperature

Stations

Nearby Weather Stations

Station Location Temp. Windchill Dew Point Humidity Wind Precip. Elev Updated Type
                   

Watches & Warnings

There are currently no watches in effect.